PWSweather.com
Personal Weather Stations
Station Observations
STPETERS
BroadstairsGB

BroadstairsGB

Lat: 51.37, Lon: 1.423

Elevation: 141

Station Type: WH1081

Latest ConditionsUpdated 4:45:01 PM GMT Monday, Apr 27, 2015
Currently Today's Max Today's Min Today's Average
Temperature 50.9°F10.5°C 52.2°F11.2°C 43.2°F6.2°C 47.2°F8.4°C
Dew Point 35.8°F2.1°C 42.6°F5.9°C 35.8°F2.1°C 39.4°F4.1°C
Winds 6.6 mph E10.6 kmh E 13.8 mph N22.2 kmh N - 8.9 mph 14.3 kmh
Wind Gusts 8.3 mph13.4 kmh 17.4 mph28.0 kmh - -
Humidity 56% 90% 55% 75%
Pressure 29.93 in1013.5 mb 29.93 in1013.5 mb 29.82 in1009.8 mb -
Precipitation - 0.01 in0.3 mm - -
Hour Temp Dew Point Humidity Winds Wind Gusts Pressure Precip Precip Rate Daily Precip Total
04:45 PM 50.9°F10.5°C 35.8°F2.1°C 56% 6.6 mph E10.6 kmh E 8.3 mph13.4 kmh 29.93 in1013.5 mb 0.00 in0.0 mm 0.00 in0.0 mm 0.01 in0.3 mm
04:30 PM 52.2°F11.2°C 36.5°F2.5°C 55% 6.1 mph ENE9.8 kmh ENE 9.8 mph15.8 kmh 29.92 in1013.2 mb 0.00 in0.0 mm 0.00 in0.0 mm 0.01 in0.3 mm
04:15 PM 52.0°F11.1°C 36.8°F2.7°C 56% 7.6 mph ESE12.2 kmh ESE 9.8 mph15.8 kmh 29.93 in1013.5 mb 0.00 in0.0 mm 0.00 in0.0 mm 0.01 in0.3 mm
04:00 PM 51.6°F10.9°C 36.4°F2.4°C 56% 7.8 mph E12.6 kmh E 10.7 mph17.2 kmh 29.92 in1013.2 mb 0.00 in0.0 mm 0.00 in0.0 mm 0.01 in0.3 mm
03:45 PM 51.8°F11.0°C 37.1°F2.8°C 57% 7.4 mph NE11.9 kmh NE 10.7 mph17.2 kmh 29.93 in1013.5 mb 0.00 in0.0 mm 0.00 in0.0 mm 0.01 in0.3 mm
03:30 PM 51.6°F10.9°C 37.3°F2.9°C 58% 8.5 mph E13.7 kmh E 11.4 mph18.3 kmh 29.93 in1013.5 mb 0.00 in0.0 mm 0.00 in0.0 mm 0.01 in0.3 mm
03:15 PM 51.1°F10.6°C 37.3°F2.9°C 59% 7.7 mph ENE12.4 kmh ENE 9.8 mph15.8 kmh 29.93 in1013.5 mb 0.00 in0.0 mm 0.00 in0.0 mm 0.01 in0.3 mm
03:00 PM 51.1°F10.6°C 36.8°F2.7°C 58% 7.3 mph ENE11.7 kmh ENE 9.8 mph15.8 kmh 29.93 in1013.5 mb 0.00 in0.0 mm 0.00 in0.0 mm 0.01 in0.3 mm
02:45 PM 51.1°F10.6°C 36.8°F2.7°C 58% 7.3 mph NE11.7 kmh NE 11.4 mph18.3 kmh 29.93 in1013.5 mb 0.00 in0.0 mm 0.00 in0.0 mm 0.01 in0.3 mm
02:30 PM 50.9°F10.5°C 36.7°F2.6°C 58% 7.7 mph NE12.4 kmh NE 9.8 mph15.8 kmh 29.93 in1013.5 mb 0.00 in0.0 mm 0.00 in0.0 mm 0.01 in0.3 mm
02:15 PM 50.5°F10.3°C 36.8°F2.7°C 59% 8.0 mph E12.9 kmh E 10.7 mph17.2 kmh 29.93 in1013.5 mb 0.00 in0.0 mm 0.00 in0.0 mm 0.01 in0.3 mm
02:00 PM 50.5°F10.3°C 37.2°F2.9°C 60% 7.5 mph NE12.1 kmh NE 10.7 mph17.2 kmh 29.93 in1013.5 mb 0.00 in0.0 mm 0.00 in0.0 mm 0.01 in0.3 mm
01:45 PM 50.5°F10.3°C 37.2°F2.9°C 60% 8.3 mph NE13.4 kmh NE 12.1 mph19.5 kmh 29.93 in1013.5 mb 0.00 in0.0 mm 0.00 in0.0 mm 0.01 in0.3 mm
01:30 PM 50.5°F10.3°C 37.6°F3.1°C 61% 8.3 mph NE13.4 kmh NE 12.1 mph19.5 kmh 29.93 in1013.5 mb 0.00 in0.0 mm 0.00 in0.0 mm 0.01 in0.3 mm
01:15 PM 49.8°F9.9°C 37.3°F2.9°C 62% 9.0 mph NNE14.5 kmh NNE 12.1 mph19.5 kmh 29.93 in1013.5 mb 0.00 in0.0 mm 0.00 in0.0 mm 0.01 in0.3 mm
01:00 PM 50.0°F10.0°C 37.5°F3.1°C 62% 8.4 mph NE13.5 kmh NE 14.5 mph23.3 kmh 29.93 in1013.5 mb 0.00 in0.0 mm 0.00 in0.0 mm 0.01 in0.3 mm
12:45 PM 50.4°F10.2°C 38.3°F3.5°C 63% 9.3 mph NNE15.0 kmh NNE 12.1 mph19.5 kmh 29.93 in1013.5 mb 0.00 in0.0 mm 0.00 in0.0 mm 0.01 in0.3 mm
12:30 PM 50.2°F10.1°C 38.1°F3.4°C 63% 9.3 mph NE15.0 kmh NE 12.1 mph19.5 kmh 29.93 in1013.5 mb 0.00 in0.0 mm 0.00 in0.0 mm 0.01 in0.3 mm
12:15 PM 49.8°F9.9°C 38.5°F3.6°C 65% 10.0 mph NNE16.1 kmh NNE 11.4 mph18.3 kmh 29.93 in1013.5 mb 0.00 in0.0 mm 0.00 in0.0 mm 0.01 in0.3 mm
12:00 PM 48.7°F9.3°C 37.9°F3.3°C 66% 10.9 mph NE17.5 kmh NE 13.6 mph21.9 kmh 29.93 in1013.5 mb 0.00 in0.0 mm 0.00 in0.0 mm 0.01 in0.3 mm
11:45 AM 49.3°F9.6°C 38.0°F3.3°C 65% 11.1 mph NE17.9 kmh NE 14.5 mph23.3 kmh 29.93 in1013.5 mb 0.00 in0.0 mm 0.00 in0.0 mm 0.01 in0.3 mm
11:30 AM 49.1°F9.5°C 38.6°F3.7°C 67% 10.6 mph NE17.1 kmh NE 12.1 mph19.5 kmh 29.92 in1013.2 mb 0.00 in0.0 mm 0.00 in0.0 mm 0.01 in0.3 mm
11:15 AM 48.9°F9.4°C 38.8°F3.8°C 68% 12.2 mph NNE19.6 kmh NNE 14.5 mph23.3 kmh 29.92 in1013.2 mb 0.00 in0.0 mm 0.00 in0.0 mm 0.01 in0.3 mm
11:00 AM 48.4°F9.1°C 38.7°F3.7°C 69% 12.2 mph NNE19.6 kmh NNE 14.5 mph23.3 kmh 29.92 in1013.2 mb 0.00 in0.0 mm 0.00 in0.0 mm 0.01 in0.3 mm
10:45 AM 49.1°F9.5°C 39.7°F4.3°C 70% 11.5 mph NE18.5 kmh NE 14.5 mph23.3 kmh 29.92 in1013.2 mb 0.00 in0.0 mm 0.00 in0.0 mm 0.01 in0.3 mm
10:30 AM 48.9°F9.4°C 39.9°F4.4°C 71% 12.4 mph NNE20.0 kmh NNE 16.8 mph27.0 kmh 29.91 in1012.9 mb 0.01 in0.3 mm 0.00 in0.0 mm 0.01 in0.3 mm
10:15 AM 48.7°F9.3°C 40.1°F4.5°C 72% 11.2 mph NNE18.0 kmh NNE 16.8 mph27.0 kmh 29.91 in1012.9 mb 0.01 in0.3 mm 0.00 in0.0 mm 0.01 in0.3 mm
10:00 AM 48.4°F9.1°C 39.8°F4.3°C 72% 12.6 mph NE20.3 kmh NE 15.9 mph25.6 kmh 29.91 in1012.9 mb 0.01 in0.3 mm 0.00 in0.0 mm 0.01 in0.3 mm
09:45 AM 48.4°F9.1°C 40.5°F4.7°C 74% 11.5 mph NNE18.5 kmh NNE 15.2 mph24.5 kmh 29.91 in1012.9 mb 0.01 in0.3 mm 0.04 in1.0 mm 0.01 in0.3 mm
09:30 AM 48.6°F9.2°C 41.0°F5.0°C 75% 12.0 mph NE19.3 kmh NE 15.9 mph25.6 kmh 29.91 in1012.9 mb 0.00 in0.0 mm 0.00 in0.0 mm 0.00 in0.0 mm
09:15 AM 48.9°F9.4°C 41.4°F5.2°C 75% 11.7 mph NNE18.8 kmh NNE 13.6 mph21.9 kmh 29.91 in1012.9 mb 0.00 in0.0 mm 0.00 in0.0 mm 0.00 in0.0 mm
09:00 AM 48.6°F9.2°C 41.3°F5.2°C 76% 13.1 mph NNE21.1 kmh NNE 15.9 mph25.6 kmh 29.90 in1012.5 mb 0.00 in0.0 mm 0.00 in0.0 mm 0.00 in0.0 mm
08:45 AM 48.4°F9.1°C 42.2°F5.7°C 79% 12.6 mph NNE20.3 kmh NNE 17.4 mph28.0 kmh 29.90 in1012.5 mb 0.00 in0.0 mm 0.00 in0.0 mm 0.00 in0.0 mm
08:30 AM 47.8°F8.8°C 42.0°F5.6°C 80% 12.2 mph NNE19.6 kmh NNE 17.4 mph28.0 kmh 29.89 in1012.2 mb 0.00 in0.0 mm 0.00 in0.0 mm 0.00 in0.0 mm
08:15 AM 47.5°F8.6°C 42.6°F5.9°C 83% 13.0 mph NNE20.9 kmh NNE 15.9 mph25.6 kmh 29.89 in1012.2 mb 0.00 in0.0 mm 0.00 in0.0 mm 0.00 in0.0 mm
08:00 AM 46.9°F8.3°C 42.4°F5.8°C 84% 13.8 mph N22.2 kmh N 16.8 mph27.0 kmh 29.88 in1011.9 mb 0.00 in0.0 mm 0.00 in0.0 mm 0.00 in0.0 mm
07:45 AM 46.6°F8.1°C 42.3°F5.7°C 85% 12.0 mph NNE19.3 kmh NNE 14.5 mph23.3 kmh 29.88 in1011.9 mb 0.00 in0.0 mm 0.00 in0.0 mm 0.00 in0.0 mm
07:30 AM 46.0°F7.8°C 41.2°F5.1°C 83% 12.4 mph NNE20.0 kmh NNE 15.2 mph24.5 kmh 29.88 in1011.9 mb 0.00 in0.0 mm 0.00 in0.0 mm 0.00 in0.0 mm
07:15 AM 45.9°F7.7°C 40.7°F4.8°C 82% 12.7 mph N20.4 kmh N 15.9 mph25.6 kmh 29.88 in1011.9 mb 0.00 in0.0 mm 0.00 in0.0 mm 0.00 in0.0 mm
07:00 AM 45.7°F7.6°C 39.9°F4.4°C 80% 11.4 mph N18.3 kmh N 17.4 mph28.0 kmh 29.87 in1011.5 mb 0.00 in0.0 mm 0.00 in0.0 mm 0.00 in0.0 mm
06:45 AM 45.7°F7.6°C 40.2°F4.6°C 81% 11.9 mph NNE19.2 kmh NNE 15.2 mph24.5 kmh 29.86 in1011.2 mb 0.00 in0.0 mm 0.00 in0.0 mm 0.00 in0.0 mm
06:30 AM 45.5°F7.5°C 40.6°F4.8°C 83% 11.1 mph N17.9 kmh N 13.6 mph21.9 kmh 29.86 in1011.2 mb 0.00 in0.0 mm 0.00 in0.0 mm 0.00 in0.0 mm
06:15 AM 45.3°F7.4°C 41.4°F5.2°C 86% 9.9 mph N15.9 kmh N 12.1 mph19.5 kmh 29.86 in1011.2 mb 0.00 in0.0 mm 0.00 in0.0 mm 0.00 in0.0 mm
06:00 AM 44.8°F7.1°C 41.4°F5.2°C 88% 8.8 mph N14.2 kmh N 13.6 mph21.9 kmh 29.86 in1011.2 mb 0.00 in0.0 mm 0.00 in0.0 mm 0.00 in0.0 mm
05:45 AM 44.4°F6.9°C 41.1°F5.1°C 88% 8.9 mph N14.3 kmh N 12.1 mph19.5 kmh 29.86 in1011.2 mb 0.00 in0.0 mm 0.00 in0.0 mm 0.00 in0.0 mm
05:30 AM 44.1°F6.7°C 41.0°F5.0°C 89% 9.6 mph N15.4 kmh N 10.7 mph17.2 kmh 29.86 in1011.2 mb 0.00 in0.0 mm 0.00 in0.0 mm 0.00 in0.0 mm
05:15 AM 43.7°F6.5°C 40.7°F4.8°C 89% 7.7 mph N12.4 kmh N 10.7 mph17.2 kmh 29.85 in1010.8 mb 0.00 in0.0 mm 0.00 in0.0 mm 0.00 in0.0 mm
05:00 AM 43.7°F6.5°C 41.0°F5.0°C 90% 8.7 mph NNW14.0 kmh NNW 12.1 mph19.5 kmh 29.85 in1010.8 mb 0.00 in0.0 mm 0.00 in0.0 mm 0.00 in0.0 mm
04:45 AM 43.9°F6.6°C 41.1°F5.1°C 90% 9.4 mph N15.1 kmh N 11.4 mph18.3 kmh 29.84 in1010.5 mb 0.00 in0.0 mm 0.00 in0.0 mm 0.00 in0.0 mm
04:30 AM 44.1°F6.7°C 41.0°F5.0°C 89% 9.7 mph N15.6 kmh N 13.0 mph20.9 kmh 29.85 in1010.8 mb 0.00 in0.0 mm 0.00 in0.0 mm 0.00 in0.0 mm
04:15 AM 44.1°F6.7°C 41.0°F5.0°C 89% 9.2 mph N14.8 kmh N 14.5 mph23.3 kmh 29.84 in1010.5 mb 0.00 in0.0 mm 0.00 in0.0 mm 0.00 in0.0 mm
04:00 AM 43.5°F6.4°C 39.9°F4.4°C 87% 4.7 mph N7.6 kmh N 7.6 mph12.2 kmh 29.84 in1010.5 mb 0.00 in0.0 mm 0.00 in0.0 mm 0.00 in0.0 mm
03:45 AM 43.3°F6.3°C 39.7°F4.3°C 87% 5.4 mph N8.7 kmh N 7.6 mph12.2 kmh 29.84 in1010.5 mb 0.00 in0.0 mm 0.00 in0.0 mm 0.00 in0.0 mm
03:30 AM 43.2°F6.2°C 39.3°F4.1°C 86% 4.1 mph N6.6 kmh N 6.0 mph9.7 kmh 29.83 in1010.2 mb 0.00 in0.0 mm 0.00 in0.0 mm 0.00 in0.0 mm
03:15 AM 43.3°F6.3°C 39.4°F4.1°C 86% 3.9 mph NNE6.3 kmh NNE 6.0 mph9.7 kmh 29.83 in1010.2 mb 0.00 in0.0 mm 0.00 in0.0 mm 0.00 in0.0 mm
03:00 AM 43.3°F6.3°C 39.4°F4.1°C 86% 4.4 mph N7.1 kmh N 6.0 mph9.7 kmh 29.83 in1010.2 mb 0.00 in0.0 mm 0.00 in0.0 mm 0.00 in0.0 mm
02:45 AM 43.5°F6.4°C 39.3°F4.1°C 85% 3.6 mph N5.8 kmh N 4.5 mph7.2 kmh 29.83 in1010.2 mb 0.00 in0.0 mm 0.00 in0.0 mm 0.00 in0.0 mm
02:30 AM 43.9°F6.6°C 39.7°F4.3°C 85% 5.4 mph N8.7 kmh N 7.6 mph12.2 kmh 29.83 in1010.2 mb 0.00 in0.0 mm 0.00 in0.0 mm 0.00 in0.0 mm
02:15 AM 43.9°F6.6°C 39.7°F4.3°C 85% 6.6 mph N10.6 kmh N 9.2 mph14.8 kmh 29.82 in1009.8 mb 0.00 in0.0 mm 0.00 in0.0 mm 0.00 in0.0 mm
02:00 AM 44.1°F6.7°C 39.8°F4.3°C 85% 6.6 mph N10.6 kmh N 12.1 mph19.5 kmh 29.83 in1010.2 mb 0.00 in0.0 mm 0.00 in0.0 mm 0.00 in0.0 mm
01:45 AM 44.1°F6.7°C 39.8°F4.3°C 85% 6.6 mph NNE10.6 kmh NNE 9.2 mph14.8 kmh 29.82 in1009.8 mb 0.00 in0.0 mm 0.00 in0.0 mm 0.00 in0.0 mm
01:30 AM 44.1°F6.7°C 39.8°F4.3°C 85% 5.1 mph N8.2 kmh N 8.3 mph13.4 kmh 29.83 in1010.2 mb 0.00 in0.0 mm 0.00 in0.0 mm 0.00 in0.0 mm
01:15 AM 44.2°F6.8°C 40.0°F4.4°C 85% 6.1 mph N9.8 kmh N 8.3 mph13.4 kmh 29.82 in1009.8 mb 0.00 in0.0 mm 0.00 in0.0 mm 0.00 in0.0 mm
01:00 AM 44.2°F6.8°C 40.0°F4.4°C 85% 5.6 mph NE9.0 kmh NE 6.9 mph11.1 kmh 29.83 in1010.2 mb 0.00 in0.0 mm 0.00 in0.0 mm 0.00 in0.0 mm
12:45 AM 44.2°F6.8°C 40.0°F4.4°C 85% 6.0 mph NNE9.7 kmh NNE 8.3 mph13.4 kmh 29.83 in1010.2 mb 0.00 in0.0 mm 0.00 in0.0 mm 0.00 in0.0 mm
12:30 AM 44.4°F6.9°C 39.9°F4.4°C 84% 6.6 mph N10.6 kmh N 9.2 mph14.8 kmh 29.83 in1010.2 mb 0.00 in0.0 mm 0.00 in0.0 mm 0.00 in0.0 mm
12:15 AM 44.2°F6.8°C 39.7°F4.3°C 84% 5.4 mph N8.7 kmh N 6.9 mph11.1 kmh 29.83 in1010.2 mb 0.00 in0.0 mm 0.00 in0.0 mm 0.00 in0.0 mm
12:00 AM 44.8°F7.1°C 40.2°F4.6°C 84% 6.2 mph N10.0 kmh N 8.3 mph13.4 kmh 29.82 in1009.8 mb 0.00 in0.0 mm 0.00 in0.0 mm 0.00 in0.0 mm